Sidney, Nebraska
Current Conditions -  °F | °C
As of 2:47 PM on Monday 24 Nov 2014 (Local Time) from KSNY Reporting Station
Light Snow Light Snow  
Wind Chill: 21°   Ceiling: 3300
Heat Index: 34°   Visibility: 1.7mi
Dew Point: 27°   Wind: 26mph
Humidity: 75%   Direction: 320°NW
Pressure: 30.02"   Gusts: 38mph
Location:  41.14°N, 102.97°W
Report Text: KSNY 242147Z AUTO 32023G33KT 1 3/4SM -SN FEW025 BKN033 OVC055 01/M03 A3002 RMK AO2 PK WND 32033/2144 SNE22B45 P0000
Loading
Personal Weather Stations






























Interactive Weather Map New forecast layout! Learn more

10-Day Weather Forecast

Advertisements
Track Severe Weather on mobile